createdAt,value
2018-04-11T00:00:35.962Z,67.00
2018-04-11T00:03:05.418Z,66.90
2018-04-11T00:05:35.644Z,67.30
2018-04-11T00:08:06.127Z,67.70
2018-04-11T00:10:35.285Z,67.70
2018-04-11T00:13:05.515Z,69.20
2018-04-11T00:15:35.744Z,68.70
2018-04-11T00:18:05.212Z,68.70
2018-04-11T00:20:34.676Z,68.50
2018-04-11T00:23:05.656Z,69.50
2018-04-11T00:25:35.132Z,69.70
2018-04-11T00:28:04.609Z,69.80
2018-04-11T00:30:34.082Z,69.90
2018-04-11T00:33:03.524Z,70.60
2018-04-11T00:35:32.983Z,70.60
2018-04-11T00:38:02.646Z,70.70
2018-04-11T00:40:32.870Z,70.70
2018-04-11T00:43:03.098Z,70.80
2018-04-11T00:45:32.576Z,70.70
2018-04-11T00:48:02.031Z,70.60
2018-04-11T00:50:31.496Z,70.60
2018-04-11T00:53:12.203Z,70.60
2018-04-11T00:55:42.146Z,70.50
2018-04-11T00:58:11.620Z,70.40
2018-04-11T01:00:41.067Z,70.40
2018-04-11T01:03:10.531Z,70.50
2018-04-11T01:05:40.041Z,70.30
2018-04-11T01:08:09.499Z,70.00
2018-04-11T01:10:38.971Z,70.10
2018-04-11T01:13:09.190Z,69.90
2018-04-11T01:15:39.435Z,69.90
2018-04-11T01:18:09.654Z,69.70
2018-04-11T01:20:38.846Z,69.60
2018-04-11T01:23:08.649Z,69.70
2018-04-11T01:25:38.109Z,69.70
2018-04-11T01:28:07.559Z,69.60
2018-04-11T01:30:37.039Z,69.40
2018-04-11T01:33:08.002Z,69.50
2018-04-11T01:35:38.247Z,69.30
2018-04-11T01:38:08.139Z,69.60
2018-04-11T01:40:37.263Z,69.60
2018-04-11T01:43:06.486Z,69.50
2018-04-11T01:45:36.393Z,69.20
2018-04-11T01:48:05.850Z,69.20
2018-04-11T01:50:35.311Z,69.00
2018-04-11T01:53:04.789Z,68.90
2018-04-11T01:55:34.234Z,69.00
2018-04-11T01:58:03.027Z,69.00
2018-04-11T02:00:32.498Z,69.10
2018-04-11T02:03:02.726Z,69.30
2018-04-11T02:05:33.086Z,69.20
2018-04-11T02:08:02.552Z,69.30
2018-04-11T02:10:32.047Z,69.00
2018-04-11T02:13:01.495Z,69.10
2018-04-11T02:15:30.715Z,69.20
2018-04-11T02:18:00.710Z,69.40
2018-04-11T02:20:30.191Z,69.40
2018-04-11T02:22:59.649Z,69.60
2018-04-11T02:25:29.110Z,70.00
2018-04-11T02:27:59.489Z,70.10
2018-04-11T02:30:28.920Z,70.10
2018-04-11T02:32:58.389Z,70.00
2018-04-11T02:35:28.614Z,70.00
2018-04-11T02:37:58.839Z,69.90
2018-04-11T02:40:28.303Z,69.80
2018-04-11T02:42:57.760Z,69.70
2018-04-11T02:45:27.210Z,70.70
2018-04-11T02:47:56.677Z,69.90
2018-04-11T02:50:26.122Z,70.00
2018-04-11T02:52:56.366Z,70.90
2018-04-11T02:55:25.828Z,71.00
2018-04-11T02:57:55.278Z,70.60
2018-04-11T03:00:25.517Z,71.40
2018-04-11T03:02:54.968Z,70.60
2018-04-11T03:05:24.428Z,71.30
2018-04-11T03:07:53.575Z,70.50
2018-04-11T03:10:24.002Z,71.10
2018-04-11T03:12:53.475Z,71.20
2018-04-11T03:15:22.939Z,71.60
2018-04-11T03:17:53.199Z,71.80
2018-04-11T03:20:22.665Z,71.80
2018-04-11T03:22:52.148Z,71.50
2018-04-11T03:25:21.608Z,71.50
2018-04-11T03:27:51.857Z,72.20
2018-04-11T03:30:22.130Z,71.50
2018-04-11T03:32:51.598Z,71.50
2018-04-11T03:35:21.178Z,71.60
2018-04-11T03:37:50.640Z,71.50
2018-04-11T03:40:20.875Z,71.60
2018-04-11T03:42:51.097Z,71.90
2018-04-11T03:45:20.567Z,71.90
2018-04-11T03:47:50.030Z,71.70
2018-04-11T03:50:19.310Z,71.50
2018-04-11T03:52:48.771Z,71.30
2018-04-11T03:55:19.042Z,71.10
2018-04-11T03:57:48.529Z,71.10
2018-04-11T04:00:18.773Z,71.40
2018-04-11T04:02:48.987Z,72.00
2018-04-11T04:05:19.380Z,72.50
2018-04-11T04:07:48.857Z,72.40
2018-04-11T04:10:18.496Z,72.30
2018-04-11T04:12:47.955Z,72.70
2018-04-11T04:15:29.238Z,72.60
2018-04-11T04:18:09.784Z,72.60
2018-04-11T04:20:38.967Z,72.70
2018-04-11T04:23:10.130Z,72.50
2018-04-11T04:25:39.689Z,72.50
2018-04-11T04:28:09.135Z,72.60
2018-04-11T04:30:38.579Z,72.50
2018-04-11T04:33:08.577Z,72.30
2018-04-11T04:35:38.037Z,72.30
2018-04-11T04:38:07.504Z,71.90
2018-04-11T04:40:36.963Z,72.90
2018-04-11T04:43:06.430Z,72.10
2018-04-11T04:45:35.896Z,71.80
2018-04-11T04:48:06.123Z,71.80
2018-04-11T04:50:36.360Z,71.90
2018-04-11T04:53:06.591Z,71.70
2018-04-11T04:55:36.815Z,71.60
2018-04-11T04:58:07.051Z,71.50
2018-04-11T05:00:37.279Z,71.50
2018-04-11T05:03:06.729Z,71.50
2018-04-11T05:05:35.971Z,71.40
2018-04-11T05:08:05.431Z,71.30
2018-04-11T05:10:35.670Z,71.60
2018-04-11T05:13:05.906Z,71.80
2018-04-11T05:15:36.102Z,72.00
2018-04-11T05:18:05.606Z,72.00
2018-04-11T05:20:35.082Z,72.40
2018-04-11T05:23:04.539Z,72.30
2018-04-11T05:25:33.856Z,72.50
2018-04-11T05:28:03.314Z,72.60
2018-04-11T05:30:33.540Z,72.60
2018-04-11T05:33:03.802Z,72.80
2018-04-11T05:35:33.068Z,72.80
2018-04-11T05:38:03.016Z,72.70
2018-04-11T05:40:33.034Z,72.80
2018-04-11T05:43:02.343Z,72.80
2018-04-11T05:45:31.808Z,72.60
2018-04-11T05:48:01.365Z,73.20
2018-04-11T05:50:31.018Z,73.40
2018-04-11T05:53:01.306Z,74.20
2018-04-11T05:55:30.952Z,74.10
2018-04-11T05:58:00.425Z,74.50
2018-04-11T06:00:29.884Z,74.80
2018-04-11T06:02:59.620Z,74.70
2018-04-11T06:05:29.068Z,75.00
2018-04-11T06:07:58.523Z,75.00
2018-04-11T06:10:27.973Z,74.90
2018-04-11T06:12:58.219Z,75.00
2018-04-11T06:15:27.681Z,75.10
2018-04-11T06:17:57.893Z,74.90
2018-04-11T06:20:27.403Z,74.90
2018-04-11T06:22:56.904Z,74.80
2018-04-11T06:25:26.522Z,74.60
2018-04-11T06:27:57.051Z,74.60
2018-04-11T06:30:26.687Z,74.60
2018-04-11T06:32:56.146Z,74.40
2018-04-11T06:35:25.843Z,74.30
2018-04-11T06:37:56.973Z,74.60
2018-04-11T06:40:27.207Z,74.50
2018-04-11T06:42:57.443Z,74.50
2018-04-11T06:45:27.671Z,74.50
2018-04-11T06:47:57.889Z,74.60
2018-04-11T06:50:27.842Z,74.60
2018-04-11T06:52:58.069Z,74.60
2018-04-11T06:55:28.354Z,74.70
2018-04-11T06:57:57.755Z,74.70
2018-04-11T07:00:26.975Z,74.70
2018-04-11T07:02:56.513Z,75.40
2018-04-11T07:05:25.963Z,74.90
2018-04-11T07:07:55.433Z,74.90
2018-04-11T07:10:24.958Z,75.10
2018-04-11T07:12:54.439Z,75.30
2018-04-11T07:15:23.999Z,75.20
2018-04-11T07:17:53.478Z,75.00
2018-04-11T07:20:22.698Z,75.00
2018-04-11T07:22:52.436Z,74.90
2018-04-11T07:25:22.021Z,74.50
2018-04-11T07:27:51.839Z,74.30
2018-04-11T07:30:22.086Z,74.20
2018-04-11T07:32:51.549Z,74.10
2018-04-11T07:35:21.057Z,74.10
2018-04-11T07:37:51.064Z,74.10
2018-04-11T07:40:20.555Z,74.10
2018-04-11T07:42:50.997Z,74.30
2018-04-11T07:45:21.263Z,74.40
2018-04-11T07:47:50.703Z,74.40
2018-04-11T07:50:20.177Z,74.30
2018-04-11T07:52:49.651Z,74.30
2018-04-11T07:55:20.117Z,74.10
2018-04-11T07:57:50.346Z,73.90
2018-04-11T08:00:20.583Z,73.90
2018-04-11T08:02:50.820Z,73.80
2018-04-11T08:05:20.828Z,73.50
2018-04-11T08:07:50.385Z,73.50
2018-04-11T08:10:20.011Z,73.90
2018-04-11T08:12:49.487Z,73.20
2018-04-11T08:15:18.968Z,73.20
2018-04-11T08:17:48.485Z,73.10
2018-04-11T08:20:18.091Z,73.00
2018-04-11T08:22:47.287Z,72.90
2018-04-11T08:25:16.759Z,72.90
2018-04-11T08:27:45.655Z,72.60
2018-04-11T08:30:15.111Z,72.40
2018-04-11T08:32:45.115Z,72.00
2018-04-11T08:35:14.582Z,72.00
2018-04-11T08:37:44.219Z,71.90
2018-04-11T08:40:13.691Z,71.50
2018-04-11T08:42:44.169Z,71.30
2018-04-11T08:45:13.698Z,71.20
2018-04-11T08:47:43.135Z,71.30
2018-04-11T08:50:12.671Z,71.30
2018-04-11T08:52:42.145Z,71.30
2018-04-11T08:55:11.675Z,71.10
2018-04-11T08:57:41.284Z,71.20
2018-04-11T09:00:10.719Z,71.30
2018-04-11T09:02:40.189Z,71.50
2018-04-11T09:05:10.188Z,71.90
2018-04-11T09:07:39.417Z,71.90
2018-04-11T09:10:09.638Z,72.10
2018-04-11T09:12:39.311Z,72.00
2018-04-11T09:15:08.746Z,72.00
2018-04-11T09:17:37.872Z,72.00
2018-04-11T09:20:07.343Z,72.20
2018-04-11T09:22:36.803Z,72.30
2018-04-11T09:25:06.261Z,72.20
2018-04-11T09:27:35.726Z,71.80
2018-04-11T09:30:05.180Z,71.10
2018-04-11T09:32:35.616Z,70.80
2018-04-11T09:35:05.278Z,70.70
2018-04-11T09:37:34.740Z,70.70
2018-04-11T09:40:04.320Z,71.00
2018-04-11T09:42:33.779Z,71.00
2018-04-11T09:45:03.699Z,71.20
2018-04-11T09:47:33.157Z,71.10
2018-04-11T09:50:02.291Z,71.20
2018-04-11T09:52:31.873Z,71.60
2018-04-11T09:55:02.073Z,72.10
2018-04-11T09:57:31.528Z,72.00
2018-04-11T10:00:01.216Z,72.30
2018-04-11T10:02:35.819Z,72.10
2018-04-11T10:05:04.929Z,71.80
2018-04-11T10:07:34.391Z,71.70
2018-04-11T10:10:04.343Z,70.40
2018-04-11T10:12:33.806Z,70.30
2018-04-11T10:15:04.040Z,70.10
2018-04-11T10:17:33.503Z,70.00
2018-04-11T10:20:03.081Z,70.00
2018-04-11T10:22:33.088Z,70.10
2018-04-11T10:25:03.098Z,69.70
2018-04-11T10:27:32.574Z,69.60
2018-04-11T10:30:02.092Z,69.40
2018-04-11T10:32:31.552Z,69.70
2018-04-11T10:35:01.037Z,69.90
2018-04-11T10:37:31.298Z,70.30
2018-04-11T10:40:01.256Z,70.10
2018-04-11T10:42:30.718Z,70.00
2018-04-11T10:45:00.193Z,69.90
2018-04-11T10:47:29.817Z,68.70
2018-04-11T10:49:59.816Z,68.50
2018-04-11T10:52:30.148Z,67.30
2018-04-11T10:54:59.911Z,67.00
2018-04-11T10:57:31.161Z,66.80
2018-04-11T11:00:01.044Z,66.70
2018-04-11T11:02:30.498Z,66.80
2018-04-11T11:05:00.051Z,67.00
2018-04-11T11:07:29.647Z,66.60
2018-04-11T11:09:58.587Z,66.30
2018-04-11T11:12:27.876Z,65.80
2018-04-11T11:14:57.373Z,66.20
2018-04-11T11:17:27.057Z,65.30
2018-04-11T11:20:02.491Z,64.90
2018-04-11T11:22:31.899Z,64.80
2018-04-11T11:25:01.791Z,64.50
2018-04-11T11:27:32.127Z,65.30
2018-04-11T11:30:01.781Z,65.20
2018-04-11T11:32:30.937Z,65.20
2018-04-11T11:35:01.030Z,65.70
2018-04-11T11:37:30.408Z,65.60
2018-04-11T11:39:59.807Z,65.40
2018-04-11T11:42:30.053Z,65.00
2018-04-11T11:44:59.554Z,64.90
2018-04-11T11:47:29.802Z,64.10
2018-04-11T11:49:59.290Z,64.00
2018-04-11T11:52:28.878Z,64.30
2018-04-11T11:54:58.448Z,64.90
2018-04-11T11:57:28.717Z,64.70
2018-04-11T11:59:59.112Z,64.50
2018-04-11T12:02:29.675Z,63.70
2018-04-11T12:04:58.970Z,63.50
2018-04-11T12:07:28.625Z,63.20
2018-04-11T12:09:58.161Z,61.60
2018-04-11T12:12:27.604Z,60.90
2018-04-11T12:14:58.634Z,60.70
2018-04-11T12:17:28.176Z,60.60
2018-04-11T12:19:57.619Z,60.30
2018-04-11T12:22:28.211Z,60.50
2018-04-11T12:24:57.673Z,60.30
2018-04-11T12:27:27.120Z,60.40
2018-04-11T12:29:56.590Z,60.60
2018-04-11T12:32:26.049Z,60.30
2018-04-11T12:34:55.503Z,60.40
2018-04-11T12:37:25.003Z,60.40
2018-04-11T12:39:54.638Z,61.40
2018-04-11T12:42:24.090Z,60.90
2018-04-11T12:44:54.383Z,61.40
2018-04-11T12:47:23.833Z,62.10
2018-04-11T12:49:53.289Z,61.70
2018-04-11T12:52:22.767Z,62.00
2018-04-11T12:54:52.233Z,62.60
2018-04-11T12:57:21.472Z,63.40
2018-04-11T12:59:50.968Z,62.90
2018-04-11T13:02:20.429Z,62.70
2018-04-11T13:04:50.677Z,62.30
2018-04-11T13:07:20.915Z,61.80
2018-04-11T13:09:52.251Z,61.80
2018-04-11T13:12:21.811Z,61.70
2018-04-11T13:14:51.074Z,62.10
2018-04-11T13:17:20.539Z,62.20
2018-04-11T13:19:50.017Z,63.00
2018-04-11T13:22:19.478Z,63.00
2018-04-11T13:24:48.970Z,62.80
2018-04-11T13:27:19.351Z,61.90
2018-04-11T13:29:48.839Z,61.80
2018-04-11T13:32:18.301Z,61.50
2018-04-11T13:34:47.774Z,61.40
2018-04-11T13:37:17.004Z,61.90
2018-04-11T13:39:46.476Z,61.10
2018-04-11T13:42:16.690Z,59.70
2018-04-11T13:44:46.238Z,59.60
2018-04-11T13:47:16.457Z,59.80
2018-04-11T13:49:46.687Z,59.70
2018-04-11T13:52:16.915Z,60.10
2018-04-11T13:54:47.160Z,59.60
2018-04-11T13:57:16.618Z,59.50
2018-04-11T13:59:46.077Z,59.40
2018-04-11T14:02:15.541Z,59.30
2018-04-11T14:04:44.767Z,59.20
2018-04-11T14:07:14.250Z,58.90
2018-04-11T14:09:44.237Z,59.80
2018-04-11T14:12:13.686Z,59.70
2018-04-11T14:14:43.922Z,58.60
2018-04-11T14:17:13.593Z,57.90
2018-04-11T14:19:43.052Z,57.80
2018-04-11T14:22:12.667Z,57.70
2018-04-11T14:24:42.081Z,57.50
2018-04-11T14:27:11.539Z,57.10
2018-04-11T14:29:40.768Z,56.80
2018-04-11T14:32:10.224Z,57.00
2018-04-11T14:34:39.719Z,56.70
2018-04-11T14:37:09.175Z,56.70
2018-04-11T14:39:39.414Z,56.40
2018-04-11T14:42:08.882Z,56.30
2018-04-11T14:44:38.108Z,56.80
2018-04-11T14:47:07.354Z,56.90
2018-04-11T14:49:37.567Z,57.80
2018-04-11T14:52:08.022Z,57.20
2018-04-11T14:54:38.242Z,57.40
2018-04-11T14:57:08.469Z,57.50
2018-04-11T14:59:37.930Z,57.40
2018-04-11T15:02:07.391Z,57.70
2018-04-11T15:04:36.864Z,57.10
2018-04-11T15:07:06.345Z,56.80
2018-04-11T15:09:36.574Z,57.60
2018-04-11T15:12:05.702Z,57.60
2018-04-11T15:14:36.027Z,58.00
2018-04-11T15:17:06.046Z,58.10
2018-04-11T15:19:35.282Z,58.10
2018-04-11T15:22:05.508Z,58.40
2018-04-11T15:24:35.739Z,58.50
2018-04-11T15:27:05.987Z,58.80
2018-04-11T15:29:36.225Z,59.20
2018-04-11T15:32:05.682Z,59.10
2018-04-11T15:34:35.159Z,59.30
2018-04-11T15:37:04.639Z,59.30
2018-04-11T15:39:34.082Z,59.10
2018-04-11T15:42:04.091Z,59.00
2018-04-11T15:44:33.537Z,59.00
2018-04-11T15:47:03.001Z,58.90
2018-04-11T15:49:32.465Z,58.90
2018-04-11T15:52:02.030Z,58.70
2018-04-11T15:54:31.484Z,58.70
2018-04-11T15:57:01.871Z,59.40
2018-04-11T15:59:31.299Z,59.40
2018-04-11T16:02:00.751Z,59.90
2018-04-11T16:04:31.107Z,61.10
2018-04-11T16:07:00.364Z,61.10
2018-04-11T16:09:30.637Z,61.70
2018-04-11T16:12:00.537Z,61.60
2018-04-11T16:14:31.518Z,61.50
2018-04-11T16:17:01.784Z,61.40
2018-04-11T16:19:31.994Z,61.10
2018-04-11T16:22:02.241Z,60.80
2018-04-11T16:24:31.691Z,60.70
2018-04-11T16:27:01.159Z,60.40
2018-04-11T16:29:31.612Z,61.00
2018-04-11T16:32:01.090Z,60.30
2018-04-11T16:34:30.600Z,60.30
2018-04-11T16:37:00.263Z,60.50
2018-04-11T16:39:29.721Z,60.90
2018-04-11T16:41:59.217Z,61.20
2018-04-11T16:44:28.704Z,61.50
2018-04-11T16:46:58.154Z,61.50
2018-04-11T16:49:27.624Z,61.70
2018-04-11T16:51:57.082Z,61.80
2018-04-11T16:54:26.535Z,62.20
2018-04-11T16:56:56.402Z,62.20
2018-04-11T16:59:26.626Z,62.40
2018-04-11T17:01:56.870Z,62.30
2018-04-11T17:04:26.865Z,62.30
2018-04-11T17:06:56.325Z,62.20
2018-04-11T17:09:25.803Z,62.20
2018-04-11T17:11:55.033Z,62.30
2018-04-11T17:14:25.011Z,62.80
2018-04-11T17:16:54.268Z,62.60
2018-04-11T17:19:23.480Z,63.10
2018-04-11T17:22:04.620Z,63.20
2018-04-11T17:24:45.199Z,63.30
2018-04-11T17:27:25.715Z,63.10
2018-04-11T17:30:06.179Z,63.10
2018-04-11T17:32:35.911Z,63.10
2018-04-11T17:35:05.027Z,63.00
2018-04-11T17:37:35.250Z,63.30
2018-04-11T17:40:04.056Z,63.20
2018-04-11T17:42:33.531Z,63.40
2018-04-11T17:45:02.750Z,63.50
2018-04-11T17:47:32.230Z,63.50
2018-04-11T17:50:01.475Z,63.60
2018-04-11T17:52:30.908Z,63.60
2018-04-11T17:55:00.547Z,63.70
2018-04-11T17:57:30.434Z,63.80
2018-04-11T18:00:00.077Z,63.80
2018-04-11T18:02:29.628Z,63.80
2018-04-11T18:04:59.094Z,63.80
2018-04-11T18:07:28.568Z,63.70
2018-04-11T18:09:58.251Z,63.50
2018-04-11T18:12:27.700Z,63.60
2018-04-11T18:14:57.941Z,63.60
2018-04-11T18:17:28.162Z,63.50
2018-04-11T18:19:58.395Z,63.60
2018-04-11T18:22:28.628Z,63.50
2018-04-11T18:24:58.879Z,64.10
2018-04-11T18:27:29.082Z,64.40
2018-04-11T18:29:58.567Z,63.70
2018-04-11T18:32:28.352Z,63.90
2018-04-11T18:34:57.818Z,64.20
2018-04-11T18:37:27.277Z,64.50
2018-04-11T18:39:57.723Z,65.00
2018-04-11T18:42:27.946Z,65.20
2018-04-11T18:44:58.191Z,65.30
2018-04-11T18:47:28.421Z,65.70
2018-04-11T18:49:58.669Z,65.80
2018-04-11T18:52:28.131Z,65.80
2018-04-11T18:54:57.605Z,65.90
2018-04-11T18:57:27.092Z,65.90
2018-04-11T18:59:57.355Z,66.10
2018-04-11T19:02:27.022Z,66.00
2018-04-11T19:04:56.463Z,66.10
2018-04-11T19:07:26.716Z,66.30
2018-04-11T19:09:56.851Z,66.40
2018-04-11T19:12:26.565Z,66.40
2018-04-11T19:14:57.651Z,66.40
2018-04-11T19:17:27.212Z,66.50
2018-04-11T19:19:57.446Z,66.50
2018-04-11T19:22:26.900Z,66.50
2018-04-11T19:24:56.967Z,66.50
2018-04-11T19:27:26.447Z,66.40
2018-04-11T19:29:57.242Z,66.60
2018-04-11T19:32:26.887Z,66.50
2018-04-11T19:34:57.133Z,66.40
2018-04-11T19:37:26.747Z,66.40
2018-04-11T19:39:56.196Z,66.40
2018-04-11T19:42:25.695Z,66.30
2018-04-11T19:44:55.710Z,66.00
2018-04-11T19:47:25.726Z,66.50
2018-04-11T19:49:55.768Z,65.80
2018-04-11T19:52:25.388Z,65.90
2018-04-11T19:54:55.833Z,65.50
2018-04-11T19:57:26.166Z,65.30
2018-04-11T19:59:55.695Z,66.00
2018-04-11T20:02:25.155Z,65.00
2018-04-11T20:04:54.339Z,64.90
2018-04-11T20:07:23.389Z,64.80
2018-04-11T20:09:53.105Z,64.80
2018-04-11T20:12:22.575Z,64.90
2018-04-11T20:14:52.576Z,64.80
2018-04-11T20:17:22.687Z,64.70
2018-04-11T20:19:52.647Z,64.90
2018-04-11T20:22:22.874Z,64.90
2018-04-11T20:24:52.303Z,64.90
2018-04-11T20:27:21.290Z,65.00
2018-04-11T20:29:52.249Z,65.00
2018-04-11T20:32:22.488Z,65.20
2018-04-11T20:34:52.715Z,65.30
2018-04-11T20:37:23.164Z,65.50
2018-04-11T20:39:52.346Z,65.50
2018-04-11T20:42:22.032Z,65.70
2018-04-11T20:44:52.267Z,65.60
2018-04-11T20:47:21.452Z,65.60
2018-04-11T20:49:50.948Z,65.90
2018-04-11T20:52:20.399Z,66.10
2018-04-11T20:54:49.869Z,66.40
2018-04-11T20:57:20.838Z,66.70
2018-04-11T20:59:51.078Z,67.00
2018-04-11T21:02:20.273Z,67.00
2018-04-11T21:04:50.531Z,67.00
2018-04-11T21:07:20.069Z,67.20
2018-04-11T21:09:49.600Z,67.40
2018-04-11T21:12:19.069Z,67.40
2018-04-11T21:14:49.304Z,67.70
2018-04-11T21:17:18.490Z,67.30
2018-04-11T21:19:47.954Z,67.10
2018-04-11T21:22:17.409Z,67.10
2018-04-11T21:24:46.871Z,67.00
2018-04-11T21:27:17.121Z,66.80
2018-04-11T21:29:46.578Z,66.80
2018-04-11T21:32:16.051Z,66.60
2018-04-11T21:34:45.520Z,66.70
2018-04-11T21:37:15.000Z,66.70
2018-04-11T21:39:44.583Z,66.60
2018-04-11T21:42:14.802Z,66.70
2018-04-11T21:44:43.988Z,66.70
2018-04-11T21:47:13.941Z,66.60
2018-04-11T21:49:43.118Z,66.70
2018-04-11T21:52:13.135Z,66.70
2018-04-11T21:54:42.568Z,67.60
2018-04-11T21:57:12.047Z,67.00
2018-04-11T21:59:41.335Z,66.90
2018-04-11T22:02:11.558Z,67.30
2018-04-11T22:04:41.800Z,67.50
2018-04-11T22:07:12.031Z,67.90
2018-04-11T22:09:42.274Z,68.30
2018-04-11T22:12:12.494Z,68.30
2018-04-11T22:14:42.036Z,68.30
2018-04-11T22:17:12.251Z,68.80
2018-04-11T22:19:41.775Z,68.80
2018-04-11T22:22:12.007Z,68.80
2018-04-11T22:24:41.266Z,68.90
2018-04-11T22:27:10.476Z,68.70
2018-04-11T22:29:40.046Z,68.90
2018-04-11T22:32:09.485Z,68.90
2018-04-11T22:34:38.939Z,68.80
2018-04-11T22:37:08.411Z,68.70
2018-04-11T22:39:38.642Z,68.50
2018-04-11T22:42:08.218Z,68.50
2018-04-11T22:44:37.682Z,68.50
2018-04-11T22:47:07.165Z,68.40
2018-04-11T22:49:36.360Z,68.70
2018-04-11T22:52:05.829Z,68.90
2018-04-11T22:54:36.058Z,69.70
2018-04-11T22:57:06.289Z,69.90
2018-04-11T22:59:36.279Z,70.40
2018-04-11T23:02:05.742Z,70.30
2018-04-11T23:04:34.984Z,70.20
2018-04-11T23:07:04.499Z,70.20
2018-04-11T23:09:33.729Z,70.30
2018-04-11T23:12:02.967Z,70.50
2018-04-11T23:14:32.975Z,70.50
2018-04-11T23:17:02.083Z,70.50
2018-04-11T23:19:31.310Z,70.50
2018-04-11T23:22:00.778Z,71.60
2018-04-11T23:24:29.991Z,71.00
2018-04-11T23:26:59.446Z,70.90
2018-04-11T23:29:28.905Z,70.90
2018-04-11T23:31:58.370Z,71.00
